Time;durP1;ratioP1;P1;durP2;ratioP2;P2;SDS_P1;SDS_P2;PMS_P1;PMS_P2;Temp;Humidity;BMP_temperature;BMP_pressure;BME280_temperature;BME280_humidity;BME280_pressure;Samples;Min_cycle;Max_cycle;Signal;HPM_P1;HPM_P2
2022/09/27 00:01:46;;;;;;;12.60;7.78;;;;;;;12.56;85.51;98141.94;5114153;28;20059;-52
2022/09/27 00:04:14;;;;;;;11.18;6.63;;;;;;;12.55;84.88;98142.31;5113962;28;20062;-52
2022/09/27 00:06:42;;;;;;;9.57;5.77;;;;;;;12.48;83.55;98151.41;5114287;28;20058;-52
2022/09/27 00:09:13;;;;;;;7.57;5.45;;;;;;;12.46;84.62;98142.63;5114053;28;20047;-50
2022/09/27 00:11:41;;;;;;;8.98;5.18;;;;;;;12.42;84.39;98157.75;5111435;28;20059;-49
2022/09/27 00:14:12;;;;;;;9.88;5.18;;;;;;;12.41;84.65;98148.56;5113803;28;20062;-52
2022/09/27 00:16:44;;;;;;;7.95;4.82;;;;;;;12.39;84.34;98156.53;5113905;28;20051;-53
2022/09/27 00:19:15;;;;;;;7.15;4.45;;;;;;;12.39;84.12;98165.69;5113473;28;20052;-50
2022/09/27 00:21:43;;;;;;;8.52;5.22;;;;;;;12.44;83.20;98161.75;5113706;28;20051;-48
2022/09/27 00:24:13;;;;;;;7.68;4.05;;;;;;;12.44;83.60;98164.53;5113534;28;20389;-49
2022/09/27 00:26:45;;;;;;;10.30;4.25;;;;;;;12.44;82.76;98172.91;5112418;28;20058;-50
2022/09/27 00:29:13;;;;;;;10.15;4.13;;;;;;;12.41;82.99;98161.72;5113933;28;20055;-50
2022/09/27 00:31:41;;;;;;;6.78;3.38;;;;;;;12.37;82.33;98172.84;5113468;28;20059;-50
2022/09/27 00:34:17;;;;;;;7.85;3.78;;;;;;;12.35;83.20;98178.03;5113409;28;20067;-50
2022/09/27 00:36:46;;;;;;;7.15;3.30;;;;;;;12.30;82.45;98175.56;5113330;28;20059;-52
2022/09/27 00:39:14;;;;;;;6.25;2.92;;;;;;;12.30;82.58;98181.13;5113397;28;20056;-50
2022/09/27 00:41:45;;;;;;;7.45;2.72;;;;;;;12.31;82.79;98179.97;5093053;28;20067;-51
2022/09/27 00:44:58;;;;;;;4.53;2.20;;;;;;;12.32;81.77;98185.16;5092999;28;20052;-53
2022/09/27 00:47:30;;;;;;;8.95;3.70;;;;;;;12.31;81.54;98191.13;5059982;28;20059;-50
2022/09/27 00:50:02;;;;;;;5.18;2.60;;;;;;;12.31;81.84;98191.13;5113165;28;20052;-49
2022/09/27 00:52:38;;;;;;;4.63;2.17;;;;;;;12.32;82.16;98192.72;5112783;28;20066;-50
2022/09/27 00:55:13;;;;;;;6.32;2.40;;;;;;;12.31;81.83;98191.13;5098142;28;20060;-52
2022/09/27 00:57:42;;;;;;;4.45;2.00;;;;;;;12.28;81.05;98194.66;5092728;28;20067;-48
2022/09/27 01:00:12;;;;;;;;;;;;;;;12.20;80.20;98196.59;5093555;28;20404;-51
2022/09/27 01:02:43;;;;;;;5.38;2.50;;;;;;;12.23;81.07;98197.81;5092574;28;19931;-50
2022/09/27 01:05:13;;;;;;;3.88;2.38;;;;;;;12.18;80.87;98199.75;5092478;28;20056;-50
2022/09/27 01:07:42;;;;;;;5.65;2.42;;;;;;;12.22;81.59;98204.56;5092228;28;20060;-54
2022/09/27 01:10:10;;;;;;;4.47;2.65;;;;;;;12.11;81.25;98201.66;5097559;28;20052;-51
2022/09/27 01:12:49;;;;;;;3.70;2.30;;;;;;;12.15;81.46;98208.88;5092447;28;20059;-50
2022/09/27 01:15:25;;;;;;;4.77;2.77;;;;;;;12.19;80.85;98206.94;5092040;28;20052;-49
2022/09/27 01:18:09;;;;;;;6.38;2.28;;;;;;;12.08;80.90;98205.22;5105274;28;20052;-53
2022/09/27 01:20:57;;;;;;;7.07;2.67;;;;;;;12.15;81.31;98211.69;5092187;28;20059;-53
2022/09/27 01:23:48;;;;;;;6.28;2.85;;;;;;;12.21;81.11;98220.53;5109268;28;20059;-54
2022/09/27 01:26:29;;;;;;;5.05;3.00;;;;;;;12.12;81.23;98212.44;5112698;28;20423;-49
2022/09/27 01:29:04;;;;;;;4.88;2.53;;;;;;;12.18;81.41;98218.50;5094817;28;20541;-49
2022/09/27 01:31:40;;;;;;;8.20;3.55;;;;;;;12.11;81.42;98215.59;5112818;28;20056;-50
2022/09/27 01:34:14;;;;;;;7.85;3.17;;;;;;;12.16;80.80;98218.88;5112841;28;20056;-51
2022/09/27 01:36:48;;;;;;;6.45;3.10;;;;;;;12.17;80.77;98214.88;5101556;28;20056;-50
2022/09/27 01:39:32;;;;;;;4.57;2.78;;;;;;;12.20;80.72;98216.13;5092338;28;20438;-50
2022/09/27 01:42:08;;;;;;;5.60;3.00;;;;;;;12.19;80.53;98218.09;5092587;28;20056;-49
2022/09/27 01:44:40;;;;;;;7.18;3.13;;;;;;;12.22;81.00;98212.94;5092201;28;20059;-50
2022/09/27 01:47:17;;;;;;;8.27;3.80;;;;;;;12.18;81.29;98216.50;5095828;28;20063;-49
2022/09/27 01:49:53;;;;;;;5.57;3.40;;;;;;;12.21;80.53;98214.94;5112176;28;20058;-49
2022/09/27 01:52:24;;;;;;;6.95;4.00;;;;;;;12.16;80.16;98216.09;5112669;28;20555;-49
2022/09/27 01:54:56;;;;;;;4.97;3.40;;;;;;;12.18;80.95;98218.50;5099669;28;20055;-49
2022/09/27 01:57:37;;;;;;;5.45;3.38;;;;;;;12.22;80.22;98221.31;5092096;28;20052;-50
2022/09/27 02:00:07;;;;;;;5.07;3.90;;;;;;;12.16;79.58;98218.88;5091530;28;20063;-51
2022/09/27 02:02:40;;;;;;;7.72;4.18;;;;;;;12.22;79.86;98221.31;5091530;28;20389;-48
2022/09/27 02:05:13;;;;;;;8.00;3.60;;;;;;;12.17;80.61;98226.06;5112484;28;20062;-53
2022/09/27 02:07:44;;;;;;;6.40;4.00;;;;;;;12.22;80.43;98215.72;5112443;28;20055;-50
2022/09/27 02:10:16;;;;;;;6.43;4.30;;;;;;;12.16;80.41;98220.88;5112135;28;20530;-53
2022/09/27 02:12:50;;;;;;;7.63;4.55;;;;;;;12.18;80.33;98224.09;5112375;28;20059;-49
2022/09/27 02:15:18;;;;;;;6.63;3.92;;;;;;;12.19;79.65;98225.69;5110729;28;20419;-49
2022/09/27 02:17:57;;;;;;;6.30;4.00;;;;;;;12.19;79.40;98229.25;5112178;28;20056;-50
2022/09/27 02:20:30;;;;;;;10.00;4.40;;;;;;;12.21;79.25;98225.31;5112242;28;20055;-50
2022/09/27 02:23:10;;;;;;;5.82;5.05;;;;;;;12.21;79.78;98222.50;5111304;28;20048;-49
2022/09/27 02:25:44;;;;;;;5.60;4.60;;;;;;;12.19;78.45;98225.69;5091421;28;20052;-49
2022/09/27 02:28:22;;;;;;;7.82;5.18;;;;;;;12.11;79.58;98227.56;5092064;28;20083;-50
2022/09/27 02:30:50;;;;;;;9.95;6.25;;;;;;;12.14;79.27;98228.81;5091910;28;20059;-48
2022/09/27 02:33:22;;;;;;;9.05;6.68;;;;;;;12.14;79.23;98235.19;5091681;28;20519;-50
2022/09/27 02:35:50;;;;;;;7.57;6.20;;;;;;;12.13;79.75;98236.38;5110349;28;20059;-49
2022/09/27 02:38:18;;;;;;;9.88;6.53;;;;;;;12.19;78.93;98239.63;5115892;28;20059;-49
2022/09/27 02:40:48;;;;;;;8.05;7.20;;;;;;;12.18;79.11;98230.47;5099878;28;20059;-49
2022/09/27 02:43:19;;;;;;;9.98;6.68;;;;;;;12.21;79.02;98233.69;5095727;28;20519;-51
2022/09/27 02:46:01;;;;;;;10.40;6.45;;;;;;;12.23;79.06;98234.09;5095395;28;20060;-51
2022/09/27 02:48:37;;;;;;;11.43;7.70;;;;;;;12.22;79.22;98233.31;5095791;28;20067;-51
2022/09/27 02:51:21;;;;;;;11.10;8.80;;;;;;;12.21;79.03;98237.25;5094161;28;20052;-52
2022/09/27 02:54:07;;;;;;;10.52;8.43;;;;;;;12.22;78.27;98243.66;5094998;28;20425;-53
2022/09/27 02:56:45;;;;;;;12.10;8.75;;;;;;;12.21;78.80;98239.25;5095124;28;20063;-53
2022/09/27 02:59:26;;;;;;;12.18;8.25;;;;;;;12.15;78.53;98242.38;5095197;28;20515;-49
2022/09/27 03:02:07;;;;;;;13.68;9.60;;;;;;;12.15;78.54;98247.94;5104237;28;20052;-51
2022/09/27 03:04:43;;;;;;;11.88;8.73;;;;;;;12.12;78.74;98250.72;5114930;28;20051;-51
2022/09/27 03:07:12;;;;;;;13.98;9.25;;;;;;;12.13;78.35;98241.94;5114900;28;20060;-50
2022/09/27 03:09:43;;;;;;;13.80;9.45;;;;;;;12.07;77.67;98249.03;5114812;28;20059;-48
2022/09/27 03:12:10;;;;;;;15.02;10.35;;;;;;;12.11;78.19;98249.09;5114907;28;20071;-52
2022/09/27 03:14:37;;;;;;;14.60;10.88;;;;;;;12.09;78.07;98248.66;5114816;28;20059;-50
2022/09/27 03:17:05;;;;;;;12.07;9.57;;;;;;;12.08;77.92;98242.28;5099183;28;20056;-52
2022/09/27 03:19:32;;;;;;;10.32;7.97;;;;;;;12.10;76.95;98253.88;5094369;28;20714;-50
2022/09/27 03:22:01;;;;;;;9.45;6.85;;;;;;;12.09;76.93;98252.25;5101373;28;20062;-50
2022/09/27 03:24:28;;;;;;;7.95;6.43;;;;;;;12.09;77.10;98255.06;5115373;28;20066;-51
2022/09/27 03:26:56;;;;;;;8.80;6.13;;;;;;;12.04;77.10;98265.75;5115101;28;20488;-52
2022/09/27 03:29:23;;;;;;;9.88;6.13;;;;;;;12.02;76.97;98256.97;5113423;28;20060;-51
2022/09/27 03:31:51;;;;;;;8.18;5.68;;;;;;;12.01;77.13;98261.75;5114182;28;20052;-52
2022/09/27 03:34:18;;;;;;;8.18;6.07;;;;;;;12.03;77.40;98259.34;5114789;28;20063;-51
2022/09/27 03:36:45;;;;;;;7.80;6.47;;;;;;;11.98;77.48;98266.06;5114749;28;20491;-52
2022/09/27 03:39:14;;;;;;;8.95;6.70;;;;;;;12.01;77.56;98277.66;5094230;28;20056;-49
2022/09/27 03:41:42;;;;;;;9.33;5.77;;;;;;;11.98;77.39;98282.03;5094223;28;20059;-49
2022/09/27 03:44:09;;;;;;;7.93;6.40;;;;;;;12.01;77.33;98272.91;5093642;28;20052;-50
2022/09/27 03:46:36;;;;;;;8.68;6.50;;;;;;;11.99;77.66;98280.84;5110243;28;20059;-50
2022/09/27 03:49:04;;;;;;;7.20;5.78;;;;;;;11.98;76.86;98280.03;5097376;28;20051;-49
2022/09/27 03:51:31;;;;;;;8.68;5.88;;;;;;;12.03;76.46;98281.69;5101517;28;20048;-53
2022/09/27 03:53:59;;;;;;;8.20;6.20;;;;;;;12.02;76.54;98280.09;5093573;28;20493;-53
2022/09/27 03:56:28;;;;;;;8.25;6.47;;;;;;;11.95;77.24;98280.78;5104562;28;20066;-52
2022/09/27 03:58:55;;;;;;;6.83;5.63;;;;;;;11.98;76.64;98280.03;5105960;28;20055;-50
2022/09/27 04:01:22;;;;;;;7.07;5.32;;;;;;;11.98;75.86;98268.88;5110563;28;20492;-50
2022/09/27 04:03:49;;;;;;;8.95;6.30;;;;;;;11.97;75.94;98278.44;5105248;28;20421;-49
2022/09/27 04:06:17;;;;;;;9.75;6.18;;;;;;;11.98;76.34;98273.66;5111548;28;20059;-49
2022/09/27 04:08:46;;;;;;;9.00;6.10;;;;;;;11.94;75.96;98273.59;5104937;28;20055;-50
2022/09/27 04:11:14;;;;;;;8.02;5.32;;;;;;;11.88;76.17;98269.53;5103605;28;20074;-51
2022/09/27 04:13:43;;;;;;;6.82;5.43;;;;;;;11.78;75.96;98278.53;5113755;28;20056;-50
2022/09/27 04:16:10;;;;;;;8.80;6.05;;;;;;;11.77;76.13;98274.91;5101473;28;20492;-51
2022/09/27 04:18:38;;;;;;;7.60;5.30;;;;;;;11.70;75.89;98276.81;5093198;28;20052;-50
2022/09/27 04:21:05;;;;;;;6.75;4.93;;;;;;;11.67;75.74;98283.13;5102855;28;20058;-50
2022/09/27 04:23:33;;;;;;;6.43;4.78;;;;;;;11.61;75.75;98288.22;5109421;28;20048;-49
2022/09/27 04:26:00;;;;;;;6.00;4.88;;;;;;;11.57;76.49;98287.38;5110567;28;20073;-48
2022/09/27 04:28:29;;;;;;;6.20;4.65;;;;;;;11.57;77.07;98298.53;5101702;28;20417;-48
2022/09/27 04:30:58;;;;;;;6.40;4.72;;;;;;;11.55;76.91;98298.09;5112182;28;20067;-50
2022/09/27 04:33:25;;;;;;;6.82;5.63;;;;;;;11.56;77.40;98296.91;5113618;28;20070;-49
2022/09/27 04:38:37;;;;;;;8.98;6.35;;;;;;;11.58;77.61;98306.50;5114191;28;20066;-52
2022/09/27 04:41:06;;;;;;;9.18;6.90;;;;;;;11.63;76.88;98312.94;5113625;28;20511;-54
2022/09/27 04:43:33;;;;;;;10.45;7.00;;;;;;;11.62;76.97;98306.56;5113427;28;20062;-51
2022/09/27 04:46:02;;;;;;;8.20;7.15;;;;;;;11.66;76.77;98296.28;5110192;28;20059;-50
2022/09/27 04:48:29;;;;;;;12.57;9.23;;;;;;;11.68;76.74;98305.06;5113266;28;20055;-50
2022/09/27 04:50:58;;;;;;;11.55;10.20;;;;;;;11.61;76.37;98309.72;5112783;28;20468;-53
2022/09/27 04:53:25;;;;;;;13.88;10.05;;;;;;;11.63;75.54;98308.16;5113320;28;20333;-52
2022/09/27 04:55:54;;;;;;;14.50;10.25;;;;;;;11.59;75.36;98312.91;5113041;28;20078;-51
2022/09/27 04:58:21;;;;;;;13.75;11.55;;;;;;;11.62;75.79;98312.16;5111335;28;20051;-50
2022/09/27 05:00:51;;;;;;;14.02;10.68;;;;;;;11.65;76.77;98322.53;5113273;28;20077;-51
2022/09/27 05:03:20;;;;;;;14.98;11.20;;;;;;;11.59;76.48;98329.63;5112690;28;20060;-51
2022/09/27 05:05:47;;;;;;;12.25;10.27;;;;;;;11.63;76.28;98324.09;5112947;28;20051;-50
2022/09/27 05:08:14;;;;;;;12.32;10.43;;;;;;;11.61;76.26;98326.47;5112963;28;20063;-52
2022/09/27 05:10:42;;;;;;;13.20;10.43;;;;;;;11.68;76.20;98330.16;5112862;28;20059;-52
2022/09/27 05:13:09;;;;;;;13.70;9.95;;;;;;;11.61;76.57;98332.84;5111202;28;20459;-52
2022/09/27 05:15:36;;;;;;;11.00;9.43;;;;;;;11.71;76.02;98334.19;5112821;28;20051;-51
2022/09/27 05:18:05;;;;;;;14.63;9.90;;;;;;;11.61;75.81;98340.41;5112546;28;20419;-53
2022/09/27 05:20:34;;;;;;;14.65;10.20;;;;;;;11.58;76.43;98345.53;5112742;28;20055;-51
2022/09/27 05:23:02;;;;;;;13.48;10.77;;;;;;;11.55;76.24;98348.28;5112402;28;20056;-50
2022/09/27 05:25:30;;;;;;;12.10;8.88;;;;;;;11.58;76.76;98348.31;5112961;28;20056;-52
2022/09/27 05:27:58;;;;;;;12.18;8.65;;;;;;;11.58;76.77;98348.31;5099815;28;20071;-54
2022/09/27 05:30:26;;;;;;;11.70;8.75;;;;;;;11.63;76.36;98351.97;5092104;28;20060;-52
2022/09/27 05:32:54;;;;;;;11.95;9.10;;;;;;;11.61;76.15;98349.56;5092158;28;20056;-53
2022/09/27 05:35:21;;;;;;;12.52;9.65;;;;;;;11.71;75.64;98351.72;5090336;28;20051;-54
2022/09/27 05:37:54;;;;;;;12.43;9.13;;;;;;;11.71;75.89;98348.94;5106064;28;20052;-51
2022/09/27 05:40:23;;;;;;;12.65;9.23;;;;;;;11.71;75.79;98348.13;5112109;28;20376;-50
2022/09/27 05:42:51;;;;;;;12.13;9.52;;;;;;;11.76;75.40;98351.41;5096098;28;20054;-50
2022/09/27 05:45:20;;;;;;;11.98;9.50;;;;;;;11.78;75.58;98357.44;5096204;28;20052;-53
2022/09/27 05:47:53;;;;;;;12.38;11.05;;;;;;;11.74;75.90;98352.97;5104996;28;20058;-49
2022/09/27 05:50:21;;;;;;;15.75;10.90;;;;;;;11.77;74.96;98357.78;5108537;28;20055;-50
2022/09/27 05:52:49;;;;;;;14.80;11.75;;;;;;;11.58;75.88;98362.28;5098688;28;20059;-52
2022/09/27 05:55:18;;;;;;;16.52;12.07;;;;;;;11.57;76.38;98373.81;5105676;28;20423;-51
2022/09/27 05:57:55;;;;;;;13.93;12.02;;;;;;;11.66;75.90;98368.78;5095058;28;20060;-50
2022/09/27 06:00:22;;;;;;;14.63;12.05;;;;;;;11.73;76.01;98374.47;5093806;28;20060;-49
2022/09/27 06:02:57;;;;;;;18.90;12.63;;;;;;;11.82;75.84;98381.78;5095988;28;20056;-50
2022/09/27 06:05:26;;;;;;;19.17;12.77;;;;;;;11.78;74.91;98381.72;5091996;28;20059;-53
2022/09/27 06:07:59;;;;;;;15.85;12.88;;;;;;;11.82;74.94;98381.78;5099271;28;20052;-53
2022/09/27 06:10:28;;;;;;;15.50;12.73;;;;;;;11.87;74.34;98378.69;5113645;28;20063;-53
2022/09/27 06:13:01;;;;;;;16.33;11.82;;;;;;;11.74;73.44;98383.66;5112171;28;20412;-52
2022/09/27 06:15:29;;;;;;;17.35;11.55;;;;;;;11.83;73.50;98388.97;5115709;28;20601;-52
2022/09/27 06:17:57;;;;;;;13.82;11.10;;;;;;;11.89;74.52;98388.31;5116135;28;20056;-49
2022/09/27 06:20:25;;;;;;;15.20;11.65;;;;;;;11.89;73.28;98398.66;5116025;28;20056;-51
2022/09/27 06:22:53;;;;;;;16.45;11.55;;;;;;;11.88;73.71;98394.22;5115877;28;20074;-50
2022/09/27 06:25:20;;;;;;;13.85;11.27;;;;;;;11.87;74.07;98390.63;5113876;28;20500;-50
2022/09/27 06:27:49;;;;;;;17.13;10.85;;;;;;;11.83;73.57;98394.56;5115989;28;20055;-50
2022/09/27 06:30:16;;;;;;;13.93;10.70;;;;;;;11.77;73.54;98386.47;5116229;28;20067;-50
2022/09/27 06:32:44;;;;;;;11.20;9.30;;;;;;;11.94;72.94;98392.75;5112554;28;20502;-50
2022/09/27 06:35:11;;;;;;;12.20;9.70;;;;;;;12.04;72.38;98400.50;5104445;28;20436;-49
2022/09/27 06:37:39;;;;;;;13.68;8.38;;;;;;;12.11;71.97;98392.22;5110564;28;20051;-50
2022/09/27 06:40:08;;;;;;;9.52;8.05;;;;;;;12.19;71.47;98396.72;5099722;28;20060;-49
2022/09/27 06:42:35;;;;;;;10.23;7.47;;;;;;;12.30;70.81;98391.28;5095262;28;20047;-50
2022/09/27 06:45:05;;;;;;;10.80;7.45;;;;;;;12.36;69.87;98395.38;5095085;28;20056;-50
2022/09/27 06:47:35;;;;;;;9.90;7.22;;;;;;;12.54;69.38;98394.81;5094971;28;20547;-51
2022/09/27 06:50:04;;;;;;;8.77;6.50;;;;;;;12.84;69.36;98394.78;5095021;28;20412;-49
2022/09/27 06:52:32;;;;;;;10.75;7.22;;;;;;;12.97;68.91;98387.75;5094403;28;20048;-48
2022/09/27 06:54:59;;;;;;;8.35;6.40;;;;;;;13.44;68.45;98390.28;5094744;28;20052;-50
2022/09/27 07:00:26;;;;;;;9.20;5.05;;;;;;;13.79;65.48;98395.38;5100325;28;20170;-50
2022/09/27 07:02:57;;;;;;;7.22;4.30;;;;;;;14.08;63.02;98407.59;5115418;28;20436;-50
2022/09/27 07:05:24;;;;;;;6.10;4.25;;;;;;;13.67;65.33;98410.50;5115382;28;20070;-51
2022/09/27 07:07:56;;;;;;;8.18;4.35;;;;;;;13.79;65.10;98407.38;5115231;28;20059;-49
2022/09/27 07:10:25;;;;;;;5.38;3.85;;;;;;;13.58;64.62;98416.38;5115221;28;20060;-49
2022/09/27 07:12:53;;;;;;;4.45;3.17;;;;;;;13.45;65.09;98414.25;5115016;28;20491;-50
2022/09/27 07:15:22;;;;;;;5.53;3.05;;;;;;;13.69;63.58;98418.47;5100846;28;20059;-53
2022/09/27 07:17:56;;;;;;;7.10;3.55;;;;;;;13.34;63.69;98431.72;5110550;28;20055;-53
2022/09/27 07:20:24;;;;;;;5.22;3.28;;;;;;;13.34;65.76;98437.31;5114739;28;20055;-53
2022/09/27 07:22:52;;;;;;;4.07;2.78;;;;;;;13.08;65.38;98435.41;5114205;28;20439;-52
2022/09/27 07:25:19;;;;;;;7.63;3.25;;;;;;;13.14;65.56;98452.63;5114628;28;20062;-54
2022/09/27 07:27:46;;;;;;;9.90;2.67;;;;;;;13.29;64.14;98445.25;5113902;28;20063;-51
2022/09/27 07:30:15;;;;;;;5.95;2.60;;;;;;;13.37;65.43;98452.53;5094534;28;20067;-54
2022/09/27 07:32:43;;;;;;;5.38;2.80;;;;;;;13.22;64.84;98448.75;5094770;28;20048;-54
2022/09/27 07:35:14;;;;;;;3.53;2.40;;;;;;;13.12;65.75;98464.22;5094423;28;20056;-59
2022/09/27 07:37:43;;;;;;;4.15;2.60;;;;;;;13.12;65.76;98463.38;5094050;28;20059;-60
2022/09/27 07:40:11;;;;;;;4.25;2.78;;;;;;;12.98;64.71;98459.25;5094122;28;20056;-60
2022/09/27 07:42:40;;;;;;;3.42;2.65;;;;;;;12.90;65.31;98467.91;5094103;28;20508;-60
2022/09/27 07:45:09;;;;;;;6.23;2.47;;;;;;;12.62;66.75;98468.31;5093886;28;20056;-60
2022/09/27 07:47:38;;;;;;;4.97;2.88;;;;;;;12.61;67.70;98466.72;5094063;28;20064;-60
2022/09/27 07:50:08;;;;;;;4.88;2.72;;;;;;;12.56;66.91;98468.66;5093952;28;20079;-60
2022/09/27 07:52:40;;;;;;;7.25;2.63;;;;;;;12.63;67.59;98472.75;5093400;28;20408;-60
2022/09/27 07:55:08;;;;;;;3.13;2.13;;;;;;;12.59;66.74;98476.28;5094169;28;20056;-58
2022/09/27 07:57:35;;;;;;;4.65;2.20;;;;;;;12.58;65.18;98480.25;5093804;28;20063;-57
2022/09/27 08:00:04;;;;;;;4.07;2.60;;;;;;;12.68;65.92;98478.00;5099928;28;20060;-58
2022/09/27 08:02:32;;;;;;;3.50;2.43;;;;;;;12.70;65.08;98481.22;5106538;28;20048;-58
2022/09/27 08:04:59;;;;;;;4.45;2.30;;;;;;;12.62;65.36;98476.69;5106026;28;20063;-58
2022/09/27 08:07:28;;;;;;;5.03;1.92;;;;;;;12.75;65.76;98483.69;5113916;28;20502;-58
2022/09/27 08:09:57;;;;;;;4.82;2.25;;;;;;;12.74;65.61;98487.66;5111945;28;20058;-58
2022/09/27 08:12:25;;;;;;;5.10;2.25;;;;;;;12.58;65.13;98482.25;5109893;28;20385;-58
2022/09/27 08:14:53;;;;;;;3.90;2.20;;;;;;;12.53;65.30;98488.94;5113644;28;20066;-58
2022/09/27 08:17:20;;;;;;;2.65;1.92;;;;;;;12.40;65.10;98493.16;5113407;28;20051;-58
2022/09/27 08:19:48;;;;;;;3.97;2.30;;;;;;;12.42;65.78;98488.00;5113472;28;20062;-57
2022/09/27 08:22:16;;;;;;;3.13;1.95;;;;;;;12.43;65.16;98489.63;5113512;28;20060;-58
2022/09/27 08:24:44;;;;;;;5.88;2.10;;;;;;;12.35;65.82;98488.69;5108404;28;20083;-59
2022/09/27 08:27:12;;;;;;;3.85;2.00;;;;;;;12.41;65.84;98502.31;5100678;28;20512;-58
2022/09/27 08:29:40;;;;;;;1.75;1.30;;;;;;;12.47;66.72;98501.63;5113070;28;20063;-58
2022/09/27 08:32:08;;;;;;;2.15;1.30;;;;;;;12.58;64.74;98499.81;5113526;28;20488;-58
2022/09/27 08:34:35;;;;;;;3.42;1.20;;;;;;;12.46;65.90;98505.59;5112011;28;20385;-58
2022/09/27 08:37:03;;;;;;;3.17;1.10;;;;;;;12.43;65.49;98503.59;5113289;28;20059;-58
2022/09/27 08:39:31;;;;;;;2.30;1.00;;;;;;;12.44;66.35;98501.59;5104467;28;20056;-58
2022/09/27 08:42:05;;;;;;;2.92;1.10;;;;;;;12.34;65.90;98503.03;5113233;28;20424;-58
2022/09/27 08:44:42;;;;;;;2.17;1.20;;;;;;;12.36;66.56;98511.81;5112993;28;20523;-58
2022/09/27 08:47:15;;;;;;;3.17;1.20;;;;;;;12.30;66.54;98513.31;5113297;28;20431;-57
2022/09/27 08:49:49;;;;;;;3.40;1.15;;;;;;;12.27;68.24;98514.09;5112996;28;20055;-58
2022/09/27 08:52:23;;;;;;;2.58;1.02;;;;;;;12.28;67.45;98526.84;5113099;28;20060;-58
2022/09/27 08:54:51;;;;;;;2.25;1.30;;;;;;;12.20;70.49;98520.38;5101524;28;20052;-58
2022/09/27 08:57:21;;;;;;;2.65;1.42;;;;;;;12.17;70.95;98526.66;5092971;28;20527;-58
2022/09/27 08:59:57;;;;;;;2.20;1.30;;;;;;;12.33;69.75;98518.97;5092452;28;20067;-58
2022/09/27 09:02:25;;;;;;;2.65;1.27;;;;;;;12.43;68.87;98511.97;5092848;28;20062;-58
2022/09/27 09:04:56;;;;;;;2.90;1.27;;;;;;;12.47;68.90;98521.16;5104665;28;20062;-58
2022/09/27 09:07:42;;;;;;;2.50;1.27;;;;;;;12.59;67.78;98520.16;5112764;28;20062;-58
2022/09/27 09:13:26;;;;;;;3.17;1.30;;;;;;;13.27;66.05;98523.06;5114898;28;20063;-58
2022/09/27 09:16:01;;;;;;;2.60;1.38;;;;;;;13.68;65.02;98535.19;5112880;28;20060;-58
2022/09/27 09:18:48;;;;;;;3.08;1.20;;;;;;;14.20;62.81;98533.31;5112829;28;20059;-57
2022/09/27 09:21:27;;;;;;;2.45;1.10;;;;;;;14.67;59.99;98519.69;5112829;28;20506;-58
2022/09/27 09:24:09;;;;;;;2.88;1.20;;;;;;;14.72;59.62;98535.31;5099081;28;20047;-57
2022/09/27 09:26:43;;;;;;;2.42;1.00;;;;;;;14.71;60.49;98533.72;5092521;28;20063;-58
2022/09/27 09:29:38;;;;;;;2.63;1.00;;;;;;;14.79;58.62;98522.16;5104279;28;20055;-58
2022/09/27 09:32:16;;;;;;;2.42;1.00;;;;;;;15.00;58.38;98524.31;5112953;28;20059;-59
2022/09/27 09:34:50;;;;;;;2.08;0.95;;;;;;;15.15;57.64;98515.97;5112312;28;20059;-58
2022/09/27 09:37:23;;;;;;;1.52;0.68;;;;;;;15.37;57.31;98520.47;5112976;28;20056;-58
2022/09/27 09:39:54;;;;;;;2.35;0.70;;;;;;;15.61;58.40;98512.53;5112487;28;20052;-59
2022/09/27 09:42:27;;;;;;;2.78;1.20;;;;;;;15.27;57.98;98524.03;5110376;28;20051;-58
2022/09/27 09:45:01;;;;;;;1.30;0.77;;;;;;;15.22;55.97;98522.41;5114508;28;20485;-58
2022/09/27 09:47:36;;;;;;;1.85;0.80;;;;;;;15.27;57.17;98512.81;5116849;28;20059;-59
2022/09/27 09:50:14;;;;;;;3.40;0.90;;;;;;;14.99;56.94;98517.09;5115360;28;20530;-58
2022/09/27 09:52:47;;;;;;;2.28;0.90;;;;;;;14.67;58.74;98514.09;5096077;28;20060;-58
2022/09/27 09:55:19;;;;;;;2.25;1.10;;;;;;;14.33;58.72;98513.41;5096041;28;20055;-58
2022/09/27 09:57:58;;;;;;;1.90;0.90;;;;;;;14.29;58.36;98509.78;5094962;28;20087;-58
2022/09/27 10:00:27;;;;;;;2.15;1.00;;;;;;;14.39;59.22;98512.66;5096442;28;20052;-58
2022/09/27 10:02:58;;;;;;;2.15;0.80;;;;;;;14.37;59.14;98509.44;5096041;28;20060;-57
2022/09/27 10:05:27;;;;;;;1.48;0.77;;;;;;;14.05;58.95;98514.78;5112552;28;20062;-57
2022/09/27 10:07:58;;;;;;;1.52;0.90;;;;;;;13.96;60.11;98506.72;5116190;28;20520;-58
2022/09/27 10:10:26;;;;;;;3.13;0.90;;;;;;;13.91;59.47;98503.44;5113769;28;20063;-58
2022/09/27 10:12:54;;;;;;;3.40;0.90;;;;;;;14.00;59.67;98503.91;5116025;28;20492;-58
2022/09/27 10:15:24;;;;;;;2.10;0.85;;;;;;;13.98;59.74;98503.50;5115545;28;20051;-57
2022/09/27 10:17:55;;;;;;;2.10;0.70;;;;;;;14.00;59.66;98498.31;5114347;28;20058;-58
2022/09/27 10:20:32;;;;;;;1.90;1.00;;;;;;;13.89;60.02;98509.41;5116165;28;20056;-57
2022/09/27 10:23:06;;;;;;;1.85;0.88;;;;;;;13.99;59.91;98499.53;5108073;28;20063;-58
2022/09/27 10:25:47;;;;;;;2.20;0.98;;;;;;;14.13;59.78;98502.47;5105065;28;20074;-57
2022/09/27 10:28:31;;;;;;;2.22;0.98;;;;;;;13.92;58.98;98502.25;5115892;28;20052;-57
2022/09/27 10:31:02;;;;;;;2.50;1.00;;;;;;;13.92;58.50;98496.63;5116139;28;20059;-57
2022/09/27 10:33:31;;;;;;;1.77;0.90;;;;;;;13.90;59.83;98497.03;5115769;28;20059;-57
2022/09/27 10:35:59;;;;;;;;;;;;;;;13.99;59.77;98497.53;5116373;28;20060;-56
2022/09/27 10:38:30;;;;;;;2.05;0.95;;;;;;;13.92;59.56;98505.03;5114779;28;19920;-57
2022/09/27 10:41:15;;;;;;;1.77;0.70;;;;;;;14.02;60.42;98501.53;5095404;28;20060;-57
2022/09/27 10:43:42;;;;;;;1.75;0.90;;;;;;;14.17;60.96;98499.66;5095581;28;20063;-57
2022/09/27 10:46:16;;;;;;;1.90;0.90;;;;;;;14.89;59.59;98489.81;5095196;28;20056;-57
2022/09/27 10:48:44;;;;;;;4.80;1.00;;;;;;;15.36;58.14;98501.22;5095397;28;20056;-58
2022/09/27 10:51:25;;;;;;;1.13;0.63;;;;;;;15.37;56.52;98498.03;5095130;28;20056;-56
2022/09/27 10:53:52;;;;;;;1.55;1.00;;;;;;;15.61;56.19;98506.94;5094618;28;20481;-58
2022/09/27 10:56:27;;;;;;;1.90;1.10;;;;;;;15.73;55.40;98492.56;5094883;28;20056;-57
2022/09/27 10:58:55;;;;;;;2.38;1.10;;;;;;;15.72;56.26;98501.38;5094992;28;20496;-58
2022/09/27 11:01:24;;;;;;;3.35;0.70;;;;;;;15.22;55.45;98499.16;5095252;28;20052;-57
2022/09/27 11:03:56;;;;;;;2.60;0.90;;;;;;;15.19;55.82;98502.75;5094774;28;20059;-57
2022/09/27 11:06:31;;;;;;;1.83;0.80;;;;;;;14.86;56.26;98504.59;5095077;28;20056;-57
2022/09/27 11:09:17;;;;;;;1.98;1.05;;;;;;;15.02;56.33;98493.06;5108438;28;20527;-58
2022/09/27 11:11:45;;;;;;;3.70;1.70;;;;;;;15.41;56.11;98490.44;5115232;28;20056;-58
2022/09/27 11:14:21;;;;;;;2.00;1.08;;;;;;;15.76;55.15;98488.94;5114873;28;20052;-58
2022/09/27 11:17:00;;;;;;;2.67;1.52;;;;;;;15.92;54.26;98480.16;5115191;28;20051;-57
2022/09/27 11:19:43;;;;;;;2.17;0.93;;;;;;;15.83;54.90;98494.59;5114900;28;20055;-58
2022/09/27 11:22:28;;;;;;;2.35;0.90;;;;;;;15.94;54.51;98479.75;5112220;28;20461;-58
2022/09/27 11:25:11;;;;;;;2.15;0.90;;;;;;;16.18;54.33;98480.97;5114724;28;20055;-57
2022/09/27 11:27:50;;;;;;;1.55;0.90;;;;;;;16.24;53.37;98480.16;5115133;28;20492;-58
2022/09/27 11:30:21;;;;;;;2.10;0.95;;;;;;;16.22;53.39;98479.75;5115132;28;20062;-58
2022/09/27 11:33:18;;;;;;;3.30;1.08;;;;;;;16.23;53.03;98475.75;5114921;28;20504;-58
2022/09/27 11:35:56;;;;;;;3.60;0.95;;;;;;;16.28;53.15;98482.97;5114960;28;20047;-58
2022/09/27 11:38:27;;;;;;;4.03;1.10;;;;;;;15.79;52.22;98476.94;5113673;28;20059;-58
2022/09/27 11:41:18;;;;;;;1.80;1.00;;;;;;;16.70;51.92;98461.63;5115178;28;20062;-57
2022/09/27 11:44:08;;;;;;;1.83;0.70;;;;;;;17.64;48.55;98465.72;5115074;28;20060;-57
2022/09/27 11:46:37;;;;;;;2.15;0.90;;;;;;;17.47;47.56;98455.34;5114697;28;20407;-57
2022/09/27 11:49:31;;;;;;;2.23;0.63;;;;;;;17.58;47.86;98455.28;5114586;28;20055;-57
2022/09/27 11:52:24;;;;;;;1.60;0.85;;;;;;;18.01;46.58;98455.03;5111752;28;20059;-58
2022/09/27 11:55:12;;;;;;;2.92;0.73;;;;;;;18.32;44.97;98439.06;5107101;28;20503;-58
2022/09/27 11:57:46;;;;;;;2.65;0.85;;;;;;;17.95;45.76;98456.66;5094430;28;20055;-57
2022/09/27 12:00:34;;;;;;;1.27;0.63;;;;;;;17.43;46.58;98458.19;5093604;28;20051;-58
2022/09/27 12:03:35;;;;;;;1.58;0.70;;;;;;;17.57;47.06;98451.66;5093828;28;20052;-57